createdAt,value
2022-08-07T00:00:25.383Z,37.51
2022-08-07T00:02:53.560Z,37.49
2022-08-07T00:05:20.825Z,37.48
2022-08-07T00:07:50.703Z,37.49
2022-08-07T00:10:29.618Z,37.49
2022-08-07T00:13:00.209Z,37.49
2022-08-07T00:15:38.423Z,37.51
2022-08-07T00:18:19.208Z,37.50
2022-08-07T00:20:46.819Z,37.48
2022-08-07T00:23:14.894Z,37.48
2022-08-07T00:25:43.716Z,37.48
2022-08-07T00:28:12.605Z,37.50
2022-08-07T00:30:42.065Z,37.50
2022-08-07T00:33:08.822Z,37.49
2022-08-07T00:35:36.743Z,37.49
2022-08-07T00:38:03.759Z,37.49
2022-08-07T00:40:39.010Z,37.50
2022-08-07T00:44:00.599Z,37.50
2022-08-07T00:45:58.300Z,37.48
2022-08-07T00:48:30.832Z,37.47
2022-08-07T00:50:58.879Z,37.49
2022-08-07T00:53:26.806Z,37.49
2022-08-07T00:56:07.379Z,37.49
2022-08-07T00:58:47.187Z,37.48
2022-08-07T01:01:16.522Z,37.48
2022-08-07T01:03:56.253Z,37.48
2022-08-07T01:06:26.494Z,37.49
2022-08-07T01:08:55.754Z,37.49
2022-08-07T01:12:10.298Z,37.50
2022-08-07T01:14:09.621Z,37.50
2022-08-07T01:16:36.931Z,37.49
2022-08-07T01:19:04.661Z,37.48
2022-08-07T01:21:41.440Z,37.49
2022-08-07T01:24:09.695Z,37.49
2022-08-07T01:26:36.684Z,37.50
2022-08-07T01:29:03.669Z,37.50
2022-08-07T01:31:41.572Z,37.49
2022-08-07T01:34:09.127Z,37.50
2022-08-07T01:36:40.462Z,37.46
2022-08-07T01:39:09.927Z,37.49
2022-08-07T01:41:38.077Z,37.49
2022-08-07T01:44:05.217Z,37.48
2022-08-07T01:46:31.795Z,37.49
2022-08-07T01:49:00.003Z,37.50
2022-08-07T01:52:03.815Z,37.49
2022-08-07T01:54:32.555Z,37.45
2022-08-07T01:57:24.921Z,37.45
2022-08-07T02:00:14.971Z,37.45
2022-08-07T02:03:18.991Z,37.46
2022-08-07T02:05:48.534Z,37.49
2022-08-07T02:08:26.304Z,37.46
2022-08-07T02:10:55.350Z,37.45
2022-08-07T02:13:47.033Z,37.46
2022-08-07T02:16:13.039Z,37.47
2022-08-07T02:18:45.308Z,37.48
2022-08-07T02:21:16.013Z,37.46
2022-08-07T02:23:43.132Z,37.47
2022-08-07T02:26:32.716Z,37.45
2022-08-07T02:28:58.038Z,37.46
2022-08-07T02:31:28.878Z,37.48
2022-08-07T02:34:04.142Z,37.47
2022-08-07T02:36:37.950Z,37.46
2022-08-07T02:39:16.034Z,37.49
2022-08-07T02:41:47.243Z,37.49
2022-08-07T02:44:17.796Z,37.46
2022-08-07T02:46:52.628Z,37.47
2022-08-07T02:49:55.959Z,37.47
2022-08-07T02:52:06.715Z,37.49
2022-08-07T02:54:36.124Z,37.49
2022-08-07T02:57:06.526Z,37.50
2022-08-07T02:59:33.363Z,37.49
2022-08-07T03:02:02.246Z,37.52
2022-08-07T03:04:29.170Z,37.52
2022-08-07T03:06:56.700Z,37.51
2022-08-07T03:09:42.164Z,37.50
2022-08-07T03:12:11.602Z,37.47
2022-08-07T03:14:52.552Z,37.46
2022-08-07T03:17:19.295Z,37.46
2022-08-07T03:19:54.799Z,37.47
2022-08-07T03:22:22.719Z,37.46
2022-08-07T03:24:51.001Z,37.49
2022-08-07T03:27:30.099Z,37.47
2022-08-07T03:29:57.488Z,37.46
2022-08-07T03:32:28.395Z,37.45
2022-08-07T03:35:16.691Z,37.47
2022-08-07T03:37:46.487Z,37.48
2022-08-07T03:40:20.926Z,37.46
2022-08-07T03:42:49.336Z,37.46
2022-08-07T03:45:30.113Z,37.43
2022-08-07T03:47:58.338Z,37.45
2022-08-07T03:50:25.125Z,37.49
2022-08-07T03:52:59.522Z,37.45
2022-08-07T03:55:52.782Z,37.46
2022-08-07T03:59:07.419Z,37.47
2022-08-07T04:01:01.299Z,37.45
2022-08-07T04:03:27.927Z,37.45
2022-08-07T04:06:09.350Z,37.45
2022-08-07T04:08:55.905Z,37.47
2022-08-07T04:12:21.346Z,37.47
2022-08-07T04:14:10.326Z,37.46
2022-08-07T04:16:58.609Z,37.44
2022-08-07T04:19:50.863Z,37.47
2022-08-07T04:22:17.515Z,37.45
2022-08-07T04:24:45.423Z,37.45
2022-08-07T04:27:20.328Z,37.46
2022-08-07T04:30:02.083Z,37.44
2022-08-07T04:32:34.514Z,37.44
2022-08-07T04:35:06.249Z,37.45
2022-08-07T04:38:00.842Z,37.49
2022-08-07T04:40:20.925Z,37.47
2022-08-07T04:42:51.732Z,37.46
2022-08-07T04:45:44.462Z,37.45
2022-08-07T04:48:10.490Z,37.46
2022-08-07T04:50:54.109Z,37.46
2022-08-07T04:53:39.901Z,37.46
2022-08-07T04:58:24.503Z,37.45
2022-08-07T05:00:10.983Z,37.46
2022-08-07T05:02:22.788Z,37.44
2022-08-07T05:05:11.911Z,37.44
2022-08-07T05:07:58.583Z,37.46
2022-08-07T05:10:40.902Z,37.45
2022-08-07T05:14:55.213Z,37.46
2022-08-07T05:15:56.499Z,37.46
2022-08-07T05:18:25.791Z,37.44
2022-08-07T05:20:54.865Z,37.43
2022-08-07T05:23:29.867Z,37.40
2022-08-07T05:26:12.873Z,37.44
2022-08-07T05:28:40.774Z,37.40
2022-08-07T05:31:14.527Z,37.40
2022-08-07T05:34:01.075Z,37.39
2022-08-07T05:36:30.523Z,37.37
2022-08-07T05:40:05.902Z,37.37
2022-08-07T05:42:02.686Z,37.38
2022-08-07T05:44:30.693Z,37.36
2022-08-07T05:46:57.326Z,37.35
2022-08-07T05:49:26.798Z,37.36
2022-08-07T05:52:08.405Z,37.36
2022-08-07T05:54:48.747Z,37.35
2022-08-07T05:57:22.265Z,37.33
2022-08-07T05:59:58.042Z,37.30
2022-08-07T06:02:28.825Z,37.26
2022-08-07T06:04:58.126Z,37.30
2022-08-07T06:08:29.486Z,37.28
2022-08-07T06:10:12.636Z,37.25
2022-08-07T06:12:42.099Z,37.24
2022-08-07T06:15:09.746Z,37.23
2022-08-07T06:17:53.364Z,37.20
2022-08-07T06:20:31.804Z,37.18
2022-08-07T06:23:02.531Z,37.18
2022-08-07T06:25:54.345Z,37.16
2022-08-07T06:28:27.432Z,37.15
2022-08-07T06:30:54.939Z,37.15
2022-08-07T06:33:22.682Z,37.12
2022-08-07T06:36:06.871Z,37.13
2022-08-07T06:38:36.108Z,37.11
2022-08-07T06:41:02.740Z,37.10
2022-08-07T06:43:39.784Z,37.10
2022-08-07T06:46:11.591Z,37.08
2022-08-07T06:48:41.992Z,37.06
2022-08-07T06:51:13.916Z,37.02
2022-08-07T06:55:28.411Z,37.03
2022-08-07T06:56:49.683Z,37.02
2022-08-07T07:00:12.929Z,36.95
2022-08-07T07:02:07.131Z,36.93
2022-08-07T07:04:38.119Z,36.90
2022-08-07T07:07:10.716Z,36.85
2022-08-07T07:09:47.435Z,36.83
2022-08-07T07:12:30.655Z,36.84
2022-08-07T07:15:23.784Z,36.82
2022-08-07T07:18:14.591Z,36.81
2022-08-07T07:21:03.978Z,36.82
2022-08-07T07:24:05.488Z,36.85
2022-08-07T07:26:34.089Z,36.83
2022-08-07T07:29:28.625Z,36.87
2022-08-07T07:32:08.613Z,36.87
2022-08-07T07:34:36.001Z,36.87
2022-08-07T07:37:22.203Z,36.87
2022-08-07T07:39:54.754Z,36.87
2022-08-07T07:42:25.905Z,36.84
2022-08-07T07:45:00.855Z,36.83
2022-08-07T07:47:27.949Z,36.80
2022-08-07T07:50:36.409Z,36.81
2022-08-07T07:52:47.175Z,36.77
2022-08-07T07:55:14.115Z,36.74
2022-08-07T07:57:52.059Z,36.73
2022-08-07T08:00:29.004Z,36.68
2022-08-07T08:03:04.500Z,36.69
2022-08-07T08:05:50.468Z,36.66
2022-08-07T08:08:34.280Z,36.62
2022-08-07T08:11:08.403Z,36.59
2022-08-07T08:13:54.424Z,36.56
2022-08-07T08:16:31.917Z,36.48
2022-08-07T08:19:18.130Z,36.40
2022-08-07T08:22:08.074Z,36.40
2022-08-07T08:25:18.232Z,36.31
2022-08-07T08:27:56.389Z,36.33
2022-08-07T08:30:28.307Z,36.36
2022-08-07T08:32:59.503Z,36.35
2022-08-07T08:35:28.497Z,36.31
2022-08-07T08:38:00.843Z,36.28
2022-08-07T08:40:36.061Z,36.29
2022-08-07T08:43:22.015Z,36.32
2022-08-07T08:46:13.071Z,36.31
2022-08-07T08:49:33.399Z,36.29
2022-08-07T08:52:14.128Z,36.28
2022-08-07T08:55:07.934Z,36.23
2022-08-07T08:57:34.585Z,36.20
2022-08-07T09:00:07.772Z,36.12
2022-08-07T09:02:57.765Z,36.08
2022-08-07T09:05:46.819Z,36.00
2022-08-07T09:08:30.920Z,35.91
2022-08-07T09:11:24.942Z,35.77
2022-08-07T09:14:14.564Z,35.74
2022-08-07T09:16:47.643Z,35.60
2022-08-07T09:19:51.694Z,35.52
2022-08-07T09:24:28.236Z,35.43
2022-08-07T09:25:28.171Z,35.36
2022-08-07T09:28:04.999Z,35.37
2022-08-07T09:30:46.448Z,35.48
2022-08-07T09:33:52.482Z,35.57
2022-08-07T09:36:27.071Z,35.68
2022-08-07T09:39:54.794Z,35.72
2022-08-07T09:42:22.711Z,35.79
2022-08-07T09:47:27.739Z,35.79
2022-08-07T09:48:02.824Z,35.77
2022-08-07T09:50:33.937Z,35.77
2022-08-07T09:53:02.911Z,35.78
2022-08-07T09:56:02.844Z,35.81
2022-08-07T09:58:48.740Z,35.83
2022-08-07T10:01:54.545Z,35.82
2022-08-07T10:04:52.830Z,35.80
2022-08-07T10:07:53.398Z,35.77
2022-08-07T10:10:30.021Z,35.61
2022-08-07T10:13:55.604Z,35.54
2022-08-07T10:16:22.146Z,35.53
2022-08-07T10:19:24.329Z,35.51
2022-08-07T10:22:24.972Z,35.58
2022-08-07T10:25:42.189Z,35.61
2022-08-07T10:28:49.934Z,35.66
2022-08-07T10:31:17.717Z,35.74
2022-08-07T10:34:06.143Z,35.72
2022-08-07T10:36:58.417Z,35.78
2022-08-07T10:40:06.123Z,35.85
2022-08-07T10:43:10.055Z,35.90
2022-08-07T10:45:44.798Z,35.90
2022-08-07T10:49:10.214Z,35.92
2022-08-07T10:52:12.870Z,35.92
2022-08-07T10:55:01.976Z,35.96
2022-08-07T10:57:51.618Z,36.01
2022-08-07T11:00:36.910Z,36.01
2022-08-07T11:03:37.383Z,35.98
2022-08-07T11:06:22.933Z,35.88
2022-08-07T11:08:59.590Z,35.84
2022-08-07T11:11:37.562Z,35.76
2022-08-07T11:14:46.136Z,35.70
2022-08-07T11:17:01.878Z,35.68
2022-08-07T11:19:51.976Z,35.67
2022-08-07T11:22:36.137Z,35.72
2022-08-07T11:25:19.991Z,35.74
2022-08-07T11:28:28.804Z,35.70
2022-08-07T11:31:08.710Z,35.67
2022-08-07T11:33:54.158Z,35.69
2022-08-07T11:36:47.067Z,35.73
2022-08-07T11:40:19.210Z,35.83
2022-08-07T11:43:29.438Z,35.85
2022-08-07T11:46:21.947Z,35.88
2022-08-07T11:49:51.466Z,35.86
2022-08-07T11:52:14.200Z,35.77
2022-08-07T11:54:54.509Z,35.72
2022-08-07T11:57:59.620Z,35.65
2022-08-07T12:00:31.362Z,35.64
2022-08-07T12:03:44.336Z,35.60
2022-08-07T12:06:37.229Z,35.64
2022-08-07T12:09:28.891Z,35.69
2022-08-07T12:12:12.428Z,35.73
2022-08-07T12:14:44.716Z,35.78
2022-08-07T12:17:22.070Z,35.84
2022-08-07T12:20:05.506Z,35.89
2022-08-07T12:23:09.072Z,35.96
2022-08-07T12:26:03.363Z,36.00
2022-08-07T12:28:49.718Z,36.08
2022-08-07T12:31:53.291Z,36.11
2022-08-07T12:34:22.765Z,36.11
2022-08-07T12:36:52.932Z,36.16
2022-08-07T12:39:43.773Z,36.20
2022-08-07T12:42:07.368Z,36.22
2022-08-07T12:44:34.523Z,36.19
2022-08-07T12:47:27.021Z,36.23
2022-08-07T12:50:05.194Z,36.27
2022-08-07T12:53:18.158Z,36.23
2022-08-07T12:56:03.655Z,36.24
2022-08-07T12:58:39.600Z,36.30
2022-08-07T13:01:07.665Z,36.32
2022-08-07T13:03:59.124Z,36.34
2022-08-07T13:06:36.283Z,36.37
2022-08-07T13:10:20.027Z,36.40
2022-08-07T13:13:02.755Z,36.42
2022-08-07T13:15:51.940Z,36.42
2022-08-07T13:18:38.732Z,36.41
2022-08-07T13:21:09.647Z,36.44
2022-08-07T13:24:11.538Z,36.47
2022-08-07T13:26:55.835Z,36.46
2022-08-07T13:29:34.887Z,36.47
2022-08-07T13:32:15.303Z,36.51
2022-08-07T13:34:56.134Z,36.49
2022-08-07T13:37:42.953Z,36.50
2022-08-07T13:40:42.178Z,36.50
2022-08-07T13:43:12.372Z,36.52
2022-08-07T13:46:10.833Z,36.54
2022-08-07T13:48:34.554Z,36.54
2022-08-07T13:51:02.447Z,36.55
2022-08-07T13:54:01.745Z,36.54
2022-08-07T13:56:35.698Z,36.57
2022-08-07T13:59:12.039Z,36.59
2022-08-07T14:01:51.338Z,36.60
2022-08-07T14:04:35.398Z,36.59
2022-08-07T14:07:05.935Z,36.61
2022-08-07T14:10:12.513Z,36.62
2022-08-07T14:12:41.594Z,36.61
2022-08-07T14:15:10.424Z,36.60
2022-08-07T14:18:27.444Z,36.62
2022-08-07T14:20:40.374Z,36.64
2022-08-07T14:23:59.416Z,36.66
2022-08-07T14:26:28.325Z,36.70
2022-08-07T14:29:06.028Z,36.68
2022-08-07T14:31:56.641Z,36.68
2022-08-07T14:34:29.240Z,36.69
2022-08-07T14:36:56.756Z,36.69
2022-08-07T14:40:15.759Z,36.70
2022-08-07T14:42:18.649Z,36.70
2022-08-07T14:44:53.604Z,36.69
2022-08-07T14:47:20.159Z,36.68
2022-08-07T14:49:56.650Z,36.71
2022-08-07T14:55:12.558Z,36.73
2022-08-07T14:57:58.793Z,36.73
2022-08-07T15:00:31.347Z,36.74
2022-08-07T15:02:59.090Z,36.76
2022-08-07T15:05:27.441Z,36.76
2022-08-07T15:13:35.913Z,36.77
2022-08-07T15:16:04.825Z,36.77
2022-08-07T15:18:43.569Z,36.76
2022-08-07T15:21:58.804Z,36.77
2022-08-07T15:25:13.620Z,36.81
2022-08-07T15:27:11.607Z,36.82
2022-08-07T15:30:09.087Z,36.82
2022-08-07T15:36:01.843Z,36.81
2022-08-07T15:38:29.827Z,36.84
2022-08-07T15:41:22.822Z,36.82
2022-08-07T15:46:37.229Z,36.84
2022-08-07T15:49:12.761Z,36.87
2022-08-07T15:54:26.490Z,36.88
2022-08-07T15:56:53.100Z,36.88
2022-08-07T15:59:20.285Z,36.88
2022-08-07T16:02:07.219Z,36.90
2022-08-07T16:04:36.080Z,36.91
2022-08-07T16:08:29.154Z,36.92
2022-08-07T16:09:54.588Z,36.89
2022-08-07T16:12:31.549Z,36.88
2022-08-07T16:15:54.854Z,36.94
2022-08-07T16:19:09.544Z,36.96
2022-08-07T16:22:04.168Z,36.97
2022-08-07T16:24:37.875Z,36.97
2022-08-07T16:27:21.406Z,36.99
2022-08-07T16:30:29.302Z,37.04
2022-08-07T16:32:58.246Z,37.05
2022-08-07T16:35:58.711Z,37.09
2022-08-07T16:39:02.955Z,37.06
2022-08-07T16:41:41.601Z,37.08
2022-08-07T16:45:14.402Z,37.10
2022-08-07T16:47:51.520Z,37.09
2022-08-07T16:51:21.636Z,37.09
2022-08-07T16:54:02.757Z,37.11
2022-08-07T16:56:38.840Z,37.12
2022-08-07T16:59:14.825Z,37.16
2022-08-07T17:02:53.112Z,37.17
2022-08-07T17:06:28.212Z,37.17
2022-08-07T17:08:46.000Z,37.19
2022-08-07T17:11:28.282Z,37.20
2022-08-07T17:14:25.399Z,37.17
2022-08-07T17:16:59.538Z,37.19
2022-08-07T17:20:02.014Z,37.20
2022-08-07T17:22:38.450Z,37.22
2022-08-07T17:25:18.424Z,37.21
2022-08-07T17:28:06.720Z,37.25
2022-08-07T17:30:57.493Z,37.25
2022-08-07T17:34:08.747Z,37.25
2022-08-07T17:36:20.926Z,37.25
2022-08-07T17:39:15.709Z,37.26
2022-08-07T17:42:02.065Z,37.30
2022-08-07T17:44:50.045Z,37.31
2022-08-07T17:47:41.953Z,37.29
2022-08-07T17:50:19.367Z,37.28
2022-08-07T17:52:59.065Z,37.31
2022-08-07T17:56:00.097Z,37.31
2022-08-07T17:58:46.331Z,37.31
2022-08-07T18:01:21.297Z,37.31
2022-08-07T18:04:16.116Z,37.32
2022-08-07T18:07:20.638Z,37.33
2022-08-07T18:10:06.907Z,37.30
2022-08-07T18:12:51.504Z,37.33
2022-08-07T18:15:43.270Z,37.34
2022-08-07T18:18:45.477Z,37.35
2022-08-07T18:21:41.414Z,37.34
2022-08-07T18:24:07.663Z,37.35
2022-08-07T18:26:48.808Z,37.36
2022-08-07T18:30:05.702Z,37.36
2022-08-07T18:33:12.033Z,37.37
2022-08-07T18:36:17.041Z,37.36
2022-08-07T18:38:56.297Z,37.38
2022-08-07T18:41:55.094Z,37.35
2022-08-07T18:45:39.869Z,37.34
2022-08-07T18:48:01.560Z,37.36
2022-08-07T18:50:45.328Z,37.40
2022-08-07T18:53:39.892Z,37.37
2022-08-07T18:56:58.114Z,37.36
2022-08-07T19:00:04.207Z,37.35
2022-08-07T19:02:55.488Z,37.30
2022-08-07T19:06:03.693Z,37.30
2022-08-07T19:08:41.858Z,37.29
2022-08-07T19:11:36.475Z,37.26
2022-08-07T19:14:17.337Z,37.20
2022-08-07T19:17:07.790Z,37.10
2022-08-07T19:20:03.485Z,37.15
2022-08-07T19:22:38.363Z,37.12
2022-08-07T19:26:24.644Z,37.06
2022-08-07T19:28:58.489Z,37.04
2022-08-07T19:31:29.940Z,36.93
2022-08-07T19:33:42.099Z,36.86
2022-08-07T19:36:12.619Z,36.76
2022-08-07T19:38:53.225Z,36.81
2022-08-07T19:41:38.982Z,36.74
2022-08-07T19:44:31.540Z,36.75
2022-08-07T19:47:04.503Z,36.73
2022-08-07T19:49:57.889Z,36.69
2022-08-07T19:52:19.091Z,36.66
2022-08-07T19:54:56.165Z,36.61
2022-08-07T19:58:01.450Z,36.63
2022-08-07T20:00:12.805Z,36.58
2022-08-07T20:03:35.472Z,36.48
2022-08-07T20:06:01.104Z,36.36
2022-08-07T20:08:28.986Z,36.40
2022-08-07T20:11:01.914Z,36.33
2022-08-07T20:13:47.659Z,36.28
2022-08-07T20:16:36.104Z,36.29
2022-08-07T20:19:05.281Z,36.22
2022-08-07T20:21:42.284Z,36.23
2022-08-07T20:24:20.577Z,36.21
2022-08-07T20:26:52.346Z,36.19
2022-08-07T20:29:48.644Z,36.19
2022-08-07T20:32:22.950Z,36.10
2022-08-07T20:34:54.622Z,36.14
2022-08-07T20:37:29.930Z,36.09
2022-08-07T20:40:02.773Z,36.08
2022-08-07T20:42:31.312Z,36.09
2022-08-07T20:44:59.237Z,36.04
2022-08-07T20:47:25.965Z,36.01
2022-08-07T20:50:12.520Z,36.03
2022-08-07T20:52:50.698Z,36.02
2022-08-07T20:55:21.048Z,36.01
2022-08-07T20:58:02.638Z,35.98
2022-08-07T21:00:44.127Z,35.97
2022-08-07T21:03:16.068Z,36.01
2022-08-07T21:05:54.591Z,35.97
2022-08-07T21:08:40.691Z,35.98
2022-08-07T21:11:14.362Z,35.91
2022-08-07T21:14:16.100Z,35.88
2022-08-07T21:16:56.153Z,35.83
2022-08-07T21:19:24.778Z,35.80
2022-08-07T21:21:59.244Z,35.76
2022-08-07T21:24:47.821Z,35.74
2022-08-07T21:27:25.642Z,35.75
2022-08-07T21:30:11.105Z,35.75
2022-08-07T21:32:58.914Z,35.74
2022-08-07T21:35:34.767Z,35.72
2022-08-07T21:38:27.947Z,35.72
2022-08-07T21:41:10.183Z,35.63
2022-08-07T21:43:57.103Z,35.64
2022-08-07T21:46:35.547Z,35.57
2022-08-07T21:49:17.760Z,35.59
2022-08-07T21:51:55.632Z,35.59
2022-08-07T21:54:34.708Z,35.57
2022-08-07T21:57:44.444Z,35.54
2022-08-07T22:00:22.610Z,35.55
2022-08-07T22:03:17.087Z,35.49
2022-08-07T22:05:58.184Z,35.48
2022-08-07T22:08:27.639Z,35.46
2022-08-07T22:10:59.197Z,35.38
2022-08-07T22:13:52.297Z,35.39
2022-08-07T22:16:42.255Z,35.32
2022-08-07T22:19:18.036Z,35.31
2022-08-07T22:22:02.355Z,35.29
2022-08-07T22:24:56.378Z,35.28
2022-08-07T22:28:02.928Z,35.21
2022-08-07T22:30:21.446Z,35.13
2022-08-07T22:33:09.109Z,35.20
2022-08-07T22:35:45.936Z,35.18
2022-08-07T22:38:35.490Z,35.16
2022-08-07T22:41:08.883Z,35.16
2022-08-07T22:43:58.086Z,35.17
2022-08-07T22:47:04.204Z,35.16
2022-08-07T22:49:37.808Z,35.14
2022-08-07T22:52:13.205Z,35.09
2022-08-07T22:55:17.086Z,35.11
2022-08-07T22:57:50.898Z,35.06
2022-08-07T23:00:28.225Z,35.10
2022-08-07T23:03:13.748Z,35.06
2022-08-07T23:06:16.686Z,35.05
2022-08-07T23:08:58.517Z,35.07
2022-08-07T23:11:49.610Z,35.03
2022-08-07T23:14:47.524Z,34.93
2022-08-07T23:17:41.573Z,35.00
2022-08-07T23:20:40.600Z,35.00
2022-08-07T23:24:06.216Z,34.95
2022-08-07T23:26:19.079Z,34.98
2022-08-07T23:29:42.821Z,34.94
2022-08-07T23:34:20.773Z,35.00
2022-08-07T23:35:21.822Z,34.89
2022-08-07T23:38:08.888Z,34.93
2022-08-07T23:40:56.159Z,34.95
2022-08-07T23:43:53.121Z,34.93
2022-08-07T23:46:50.563Z,34.95
2022-08-07T23:49:54.838Z,34.70
2022-08-07T23:53:00.853Z,34.88
2022-08-07T23:55:55.758Z,34.83
2022-08-07T23:58:49.042Z,34.83
